sensor_id;sensor_type;location;lat;lon;timestamp;P1;P2;P0
44871;PMS7003;30602;51.060;17.226;2024-02-15T00:02:22;28;25;17
44871;PMS7003;30602;51.060;17.226;2024-02-15T00:05:52;29;26;16
44871;PMS7003;30602;51.060;17.226;2024-02-15T00:09:14;26;22;13
44871;PMS7003;30602;51.060;17.226;2024-02-15T00:12:44;36;31;20
44871;PMS7003;30602;51.060;17.226;2024-02-15T00:16:08;32;29;20
44871;PMS7003;30602;51.060;17.226;2024-02-15T00:19:38;37;30;21
44871;PMS7003;30602;51.060;17.226;2024-02-15T00:23:03;40;32;19
44871;PMS7003;30602;51.060;17.226;2024-02-15T00:26:34;35;30;20
44871;PMS7003;30602;51.060;17.226;2024-02-15T00:30:03;32;27;18
44871;PMS7003;30602;51.060;17.226;2024-02-15T00:33:32;36;31;20
44871;PMS7003;30602;51.060;17.226;2024-02-15T00:36:55;31;26;17
44871;PMS7003;30602;51.060;17.226;2024-02-15T00:40:22;29;26;20
44871;PMS7003;30602;51.060;17.226;2024-02-15T00:43:42;31;24;18
44871;PMS7003;30602;51.060;17.226;2024-02-15T00:47:07;26;23;16
44871;PMS7003;30602;51.060;17.226;2024-02-15T00:50:37;29;25;15
44871;PMS7003;30602;51.060;17.226;2024-02-15T00:54:02;32;24;17
44871;PMS7003;30602;51.060;17.226;2024-02-15T00:57:28;29;26;19
44871;PMS7003;30602;51.060;17.226;2024-02-15T01:00:50;25;21;16
44871;PMS7003;30602;51.060;17.226;2024-02-15T01:04:54;30;28;18
44871;PMS7003;30602;51.060;17.226;2024-02-15T01:08:17;23;21;14
44871;PMS7003;30602;51.060;17.226;2024-02-15T01:11:39;24;22;16
44871;PMS7003;30602;51.060;17.226;2024-02-15T01:15:09;28;26;17
44871;PMS7003;30602;51.060;17.226;2024-02-15T01:18:37;30;28;17
44871;PMS7003;30602;51.060;17.226;2024-02-15T01:22:00;25;23;18
44871;PMS7003;30602;51.060;17.226;2024-02-15T01:25:25;32;27;17
44871;PMS7003;30602;51.060;17.226;2024-02-15T01:28:49;28;27;20
44871;PMS7003;30602;51.060;17.226;2024-02-15T01:32:13;27;24;18
44871;PMS7003;30602;51.060;17.226;2024-02-15T01:35:34;27;24;17
44871;PMS7003;30602;51.060;17.226;2024-02-15T01:39:02;26;21;17
44871;PMS7003;30602;51.060;17.226;2024-02-15T01:42:29;21;20;14
44871;PMS7003;30602;51.060;17.226;2024-02-15T01:45:52;28;22;16
44871;PMS7003;30602;51.060;17.226;2024-02-15T01:49:13;25;20;16
44871;PMS7003;30602;51.060;17.226;2024-02-15T01:52:37;26;21;16
44871;PMS7003;30602;51.060;17.226;2024-02-15T01:56:01;26;25;15
44871;PMS7003;30602;51.060;17.226;2024-02-15T01:59:26;23;21;17
44871;PMS7003;30602;51.060;17.226;2024-02-15T02:03:23;32;26;18
44871;PMS7003;30602;51.060;17.226;2024-02-15T02:06:46;24;21;15
44871;PMS7003;30602;51.060;17.226;2024-02-15T02:10:13;25;24;18
44871;PMS7003;30602;51.060;17.226;2024-02-15T02:13:37;26;24;16
44871;PMS7003;30602;51.060;17.226;2024-02-15T02:17:11;27;26;19
44871;PMS7003;30602;51.060;17.226;2024-02-15T02:20:42;26;24;17
44871;PMS7003;30602;51.060;17.226;2024-02-15T02:24:51;30;24;17
44871;PMS7003;30602;51.060;17.226;2024-02-15T02:28:15;29;24;17
44871;PMS7003;30602;51.060;17.226;2024-02-15T02:31:35;27;21;17
44871;PMS7003;30602;51.060;17.226;2024-02-15T02:35:01;31;25;17
44871;PMS7003;30602;51.060;17.226;2024-02-15T02:38:27;41;37;23
44871;PMS7003;30602;51.060;17.226;2024-02-15T02:41:51;26;24;16
44871;PMS7003;30602;51.060;17.226;2024-02-15T02:45:21;30;25;17
44871;PMS7003;30602;51.060;17.226;2024-02-15T02:48:46;33;24;17
44871;PMS7003;30602;51.060;17.226;2024-02-15T02:52:11;25;21;16
44871;PMS7003;30602;51.060;17.226;2024-02-15T02:55:35;27;25;18
44871;PMS7003;30602;51.060;17.226;2024-02-15T02:59:02;29;27;17
44871;PMS7003;30602;51.060;17.226;2024-02-15T03:02:29;25;21;14
44871;PMS7003;30602;51.060;17.226;2024-02-15T03:06:00;25;24;17
44871;PMS7003;30602;51.060;17.226;2024-02-15T03:09:31;29;26;17
44871;PMS7003;30602;51.060;17.226;2024-02-15T03:12:57;21;20;16
44871;PMS7003;30602;51.060;17.226;2024-02-15T03:16:22;28;23;16
44871;PMS7003;30602;51.060;17.226;2024-02-15T03:19:47;26;21;15
44871;PMS7003;30602;51.060;17.226;2024-02-15T03:23:12;31;26;18
44871;PMS7003;30602;51.060;17.226;2024-02-15T03:26:36;27;24;18
44871;PMS7003;30602;51.060;17.226;2024-02-15T03:30:01;23;21;15
44871;PMS7003;30602;51.060;17.226;2024-02-15T03:33:27;30;27;16
44871;PMS7003;30602;51.060;17.226;2024-02-15T03:36:53;26;24;17
44871;PMS7003;30602;51.060;17.226;2024-02-15T03:40:25;32;26;17
44871;PMS7003;30602;51.060;17.226;2024-02-15T03:43:49;26;25;15
44871;PMS7003;30602;51.060;17.226;2024-02-15T03:47:18;24;24;16
44871;PMS7003;30602;51.060;17.226;2024-02-15T03:50:43;29;25;18
44871;PMS7003;30602;51.060;17.226;2024-02-15T03:54:07;27;22;18
44871;PMS7003;30602;51.060;17.226;2024-02-15T03:57:32;30;26;17
44871;PMS7003;30602;51.060;17.226;2024-02-15T04:00:56;26;24;17
44871;PMS7003;30602;51.060;17.226;2024-02-15T04:04:20;26;24;17
44871;PMS7003;30602;51.060;17.226;2024-02-15T04:07:44;25;22;17
44871;PMS7003;30602;51.060;17.226;2024-02-15T04:11:10;28;25;18
44871;PMS7003;30602;51.060;17.226;2024-02-15T04:14:37;24;24;18
44871;PMS7003;30602;51.060;17.226;2024-02-15T04:18:00;25;23;17
44871;PMS7003;30602;51.060;17.226;2024-02-15T04:21:27;25;25;18
44871;PMS7003;30602;51.060;17.226;2024-02-15T04:24:54;27;24;17
44871;PMS7003;30602;51.060;17.226;2024-02-15T04:28:54;32;25;17
44871;PMS7003;30602;51.060;17.226;2024-02-15T04:32:21;27;24;16
44871;PMS7003;30602;51.060;17.226;2024-02-15T04:35:47;32;25;18
44871;PMS7003;30602;51.060;17.226;2024-02-15T04:39:16;25;24;18
44871;PMS7003;30602;51.060;17.226;2024-02-15T04:42:57;28;24;16
44871;PMS7003;30602;51.060;17.226;2024-02-15T04:46:26;26;24;17
44871;PMS7003;30602;51.060;17.226;2024-02-15T04:49:53;26;24;16
44871;PMS7003;30602;51.060;17.226;2024-02-15T04:53:50;32;26;16
44871;PMS7003;30602;51.060;17.226;2024-02-15T04:57:19;30;27;18
44871;PMS7003;30602;51.060;17.226;2024-02-15T05:00:44;28;25;19
44871;PMS7003;30602;51.060;17.226;2024-02-15T05:04:17;36;30;21
44871;PMS7003;30602;51.060;17.226;2024-02-15T05:07:45;30;25;16
44871;PMS7003;30602;51.060;17.226;2024-02-15T05:11:11;27;24;17
44871;PMS7003;30602;51.060;17.226;2024-02-15T05:14:59;25;22;18
44871;PMS7003;30602;51.060;17.226;2024-02-15T05:18:35;32;28;19
44871;PMS7003;30602;51.060;17.226;2024-02-15T05:22:04;29;24;17
44871;PMS7003;30602;51.060;17.226;2024-02-15T05:25:33;45;38;24
44871;PMS7003;30602;51.060;17.226;2024-02-15T05:28:59;33;29;19
44871;PMS7003;30602;51.060;17.226;2024-02-15T05:32:22;43;35;23
44871;PMS7003;30602;51.060;17.226;2024-02-15T05:35:56;51;40;26
44871;PMS7003;30602;51.060;17.226;2024-02-15T05:39:22;42;36;24
44871;PMS7003;30602;51.060;17.226;2024-02-15T05:42:54;37;29;19
44871;PMS7003;30602;51.060;17.226;2024-02-15T05:46:21;32;27;20
44871;PMS7003;30602;51.060;17.226;2024-02-15T05:49:51;40;32;20
44871;PMS7003;30602;51.060;17.226;2024-02-15T05:53:29;36;30;20
44871;PMS7003;30602;51.060;17.226;2024-02-15T05:57:29;26;25;17
44871;PMS7003;30602;51.060;17.226;2024-02-15T06:00:57;26;24;17
44871;PMS7003;30602;51.060;17.226;2024-02-15T06:04:30;32;27;19
44871;PMS7003;30602;51.060;17.226;2024-02-15T06:07:55;28;26;18
44871;PMS7003;30602;51.060;17.226;2024-02-15T06:11:22;23;23;15
44871;PMS7003;30602;51.060;17.226;2024-02-15T06:14:51;32;28;18
44871;PMS7003;30602;51.060;17.226;2024-02-15T06:18:14;34;27;18
44871;PMS7003;30602;51.060;17.226;2024-02-15T06:21:46;35;27;18
44871;PMS7003;30602;51.060;17.226;2024-02-15T06:25:11;29;25;19
44871;PMS7003;30602;51.060;17.226;2024-02-15T06:28:41;36;32;20
44871;PMS7003;30602;51.060;17.226;2024-02-15T06:32:56;32;29;20
44871;PMS7003;30602;51.060;17.226;2024-02-15T06:36:33;29;26;17
44871;PMS7003;30602;51.060;17.226;2024-02-15T06:40:11;24;24;18
44871;PMS7003;30602;51.060;17.226;2024-02-15T06:43:40;30;27;19
44871;PMS7003;30602;51.060;17.226;2024-02-15T06:47:01;32;27;19
44871;PMS7003;30602;51.060;17.226;2024-02-15T06:50:29;30;28;18
44871;PMS7003;30602;51.060;17.226;2024-02-15T06:53:56;30;28;18
44871;PMS7003;30602;51.060;17.226;2024-02-15T06:57:22;30;26;18
44871;PMS7003;30602;51.060;17.226;2024-02-15T07:01:03;35;27;17
44871;PMS7003;30602;51.060;17.226;2024-02-15T07:05:24;33;28;17
44871;PMS7003;30602;51.060;17.226;2024-02-15T07:08:51;27;24;15
44871;PMS7003;30602;51.060;17.226;2024-02-15T07:12:22;23;22;17
44871;PMS7003;30602;51.060;17.226;2024-02-15T07:15:47;26;21;15
44871;PMS7003;30602;51.060;17.226;2024-02-15T07:19:15;19;18;12
44871;PMS7003;30602;51.060;17.226;2024-02-15T07:22:48;27;24;16
44871;PMS7003;30602;51.060;17.226;2024-02-15T07:26:14;21;21;14
44871;PMS7003;30602;51.060;17.226;2024-02-15T07:29:43;23;20;14
44871;PMS7003;30602;51.060;17.226;2024-02-15T07:33:07;25;23;15
44871;PMS7003;30602;51.060;17.226;2024-02-15T07:36:35;28;24;16
44871;PMS7003;30602;51.060;17.226;2024-02-15T07:40:07;30;27;17
44871;PMS7003;30602;51.060;17.226;2024-02-15T07:43:32;28;25;16
44871;PMS7003;30602;51.060;17.226;2024-02-15T07:46:58;28;25;18
44871;PMS7003;30602;51.060;17.226;2024-02-15T07:50:29;27;23;15
44871;PMS7003;30602;51.060;17.226;2024-02-15T07:53:59;27;21;15
44871;PMS7003;30602;51.060;17.226;2024-02-15T07:57:43;25;21;14
44871;PMS7003;30602;51.060;17.226;2024-02-15T08:01:13;25;23;15
44871;PMS7003;30602;51.060;17.226;2024-02-15T08:09:19;30;27;18
44871;PMS7003;30602;51.060;17.226;2024-02-15T08:12:50;25;22;16
44871;PMS7003;30602;51.060;17.226;2024-02-15T08:16:27;26;23;15
44871;PMS7003;30602;51.060;17.226;2024-02-15T08:20:05;25;24;16
44871;PMS7003;30602;51.060;17.226;2024-02-15T08:23:33;24;23;15
44871;PMS7003;30602;51.060;17.226;2024-02-15T08:27:03;28;25;15
44871;PMS7003;30602;51.060;17.226;2024-02-15T08:30:30;24;22;16
44871;PMS7003;30602;51.060;17.226;2024-02-15T08:33:56;24;22;15
44871;PMS7003;30602;51.060;17.226;2024-02-15T08:37:28;23;22;15
44871;PMS7003;30602;51.060;17.226;2024-02-15T08:40:55;25;22;14
44871;PMS7003;30602;51.060;17.226;2024-02-15T08:44:54;23;18;13
44871;PMS7003;30602;51.060;17.226;2024-02-15T08:48:24;25;23;17
44871;PMS7003;30602;51.060;17.226;2024-02-15T08:51:50;26;22;14
44871;PMS7003;30602;51.060;17.226;2024-02-15T08:55:22;22;21;15
44871;PMS7003;30602;51.060;17.226;2024-02-15T08:59:01;25;24;17
44871;PMS7003;30602;51.060;17.226;2024-02-15T09:02:25;21;21;17
44871;PMS7003;30602;51.060;17.226;2024-02-15T09:05:58;27;25;15
44871;PMS7003;30602;51.060;17.226;2024-02-15T09:09:24;24;21;15
44871;PMS7003;30602;51.060;17.226;2024-02-15T09:12:46;20;16;12
44871;PMS7003;30602;51.060;17.226;2024-02-15T09:16:14;23;21;14
44871;PMS7003;30602;51.060;17.226;2024-02-15T09:19:42;19;18;14
44871;PMS7003;30602;51.060;17.226;2024-02-15T09:23:17;25;23;15
44871;PMS7003;30602;51.060;17.226;2024-02-15T09:27:13;24;19;15
44871;PMS7003;30602;51.060;17.226;2024-02-15T09:30:38;26;22;15
44871;PMS7003;30602;51.060;17.226;2024-02-15T09:34:19;25;24;17
44871;PMS7003;30602;51.060;17.226;2024-02-15T09:37:51;24;20;13
44871;PMS7003;30602;51.060;17.226;2024-02-15T09:41:31;22;21;13
44871;PMS7003;30602;51.060;17.226;2024-02-15T09:45:55;18;17;12
44871;PMS7003;30602;51.060;17.226;2024-02-15T09:49:25;20;17;13
44871;PMS7003;30602;51.060;17.226;2024-02-15T09:52:58;20;19;13
44871;PMS7003;30602;51.060;17.226;2024-02-15T09:57:01;19;17;11
44871;PMS7003;30602;51.060;17.226;2024-02-15T10:00:25;19;17;12
44871;PMS7003;30602;51.060;17.226;2024-02-15T10:03:52;18;17;13
44871;PMS7003;30602;51.060;17.226;2024-02-15T10:07:20;20;17;13
44871;PMS7003;30602;51.060;17.226;2024-02-15T10:10:44;21;18;12
44871;PMS7003;30602;51.060;17.226;2024-02-15T10:14:10;25;22;13
44871;PMS7003;30602;51.060;17.226;2024-02-15T10:17:35;21;19;13
44871;PMS7003;30602;51.060;17.226;2024-02-15T10:21:00;19;18;13
44871;PMS7003;30602;51.060;17.226;2024-02-15T10:24:26;19;18;13
44871;PMS7003;30602;51.060;17.226;2024-02-15T10:27:48;24;20;12
44871;PMS7003;30602;51.060;17.226;2024-02-15T10:31:12;24;22;14
44871;PMS7003;30602;51.060;17.226;2024-02-15T10:35:02;24;20;12
44871;PMS7003;30602;51.060;17.226;2024-02-15T10:38:42;21;17;11
44871;PMS7003;30602;51.060;17.226;2024-02-15T10:42:07;19;17;12
44871;PMS7003;30602;51.060;17.226;2024-02-15T10:45:39;19;18;12
44871;PMS7003;30602;51.060;17.226;2024-02-15T10:49:03;23;16;12
44871;PMS7003;30602;51.060;17.226;2024-02-15T10:52:48;18;15;11
44871;PMS7003;30602;51.060;17.226;2024-02-15T10:56:28;17;14;11
44871;PMS7003;30602;51.060;17.226;2024-02-15T11:00:06;22;18;13
44871;PMS7003;30602;51.060;17.226;2024-02-15T11:04:42;20;17;11
44871;PMS7003;30602;51.060;17.226;2024-02-15T11:08:15;28;24;15
44871;PMS7003;30602;51.060;17.226;2024-02-15T11:11:40;23;21;14
44871;PMS7003;30602;51.060;17.226;2024-02-15T11:15:11;28;24;16
44871;PMS7003;30602;51.060;17.226;2024-02-15T11:18:45;25;24;16
44871;PMS7003;30602;51.060;17.226;2024-02-15T11:22:56;29;25;17
44871;PMS7003;30602;51.060;17.226;2024-02-15T11:30:10;26;23;16
44871;PMS7003;30602;51.060;17.226;2024-02-15T11:33:42;25;23;17
44871;PMS7003;30602;51.060;17.226;2024-02-15T11:37:08;29;25;18
44871;PMS7003;30602;51.060;17.226;2024-02-15T11:44:15;27;24;16
44871;PMS7003;30602;51.060;17.226;2024-02-15T11:47:49;25;25;18
44871;PMS7003;30602;51.060;17.226;2024-02-15T11:51:29;32;24;17
44871;PMS7003;30602;51.060;17.226;2024-02-15T11:55:09;32;28;19
44871;PMS7003;30602;51.060;17.226;2024-02-15T11:58:40;30;26;18
44871;PMS7003;30602;51.060;17.226;2024-02-15T12:02:15;29;24;17
44871;PMS7003;30602;51.060;17.226;2024-02-15T12:05:55;27;25;17
44871;PMS7003;30602;51.060;17.226;2024-02-15T12:09:37;30;24;17
44871;PMS7003;30602;51.060;17.226;2024-02-15T12:13:18;19;18;14
44871;PMS7003;30602;51.060;17.226;2024-02-15T12:17:32;19;18;13
44871;PMS7003;30602;51.060;17.226;2024-02-15T12:21:09;19;16;12
44871;PMS7003;30602;51.060;17.226;2024-02-15T12:24:38;16;14;12
44871;PMS7003;30602;51.060;17.226;2024-02-15T12:28:03;13;11;10
44871;PMS7003;30602;51.060;17.226;2024-02-15T12:31:35;18;16;10
44871;PMS7003;30602;51.060;17.226;2024-02-15T12:35:12;18;16;13
44871;PMS7003;30602;51.060;17.226;2024-02-15T12:38:57;21;18;13
44871;PMS7003;30602;51.060;17.226;2024-02-15T12:42:56;19;16;11
44871;PMS7003;30602;51.060;17.226;2024-02-15T12:46:55;20;15;11
44871;PMS7003;30602;51.060;17.226;2024-02-15T12:50:27;17;14;10
44871;PMS7003;30602;51.060;17.226;2024-02-15T12:53:52;13;12;9
44871;PMS7003;30602;51.060;17.226;2024-02-15T12:57:22;16;14;10
44871;PMS7003;30602;51.060;17.226;2024-02-15T13:00:51;14;12;9
44871;PMS7003;30602;51.060;17.226;2024-02-15T13:04:24;13;11;8
44871;PMS7003;30602;51.060;17.226;2024-02-15T13:07:53;11;10;8
44871;PMS7003;30602;51.060;17.226;2024-02-15T13:11:52;12;11;8
44871;PMS7003;30602;51.060;17.226;2024-02-15T13:15:33;12;11;9
44871;PMS7003;30602;51.060;17.226;2024-02-15T13:18:59;10;9;7
44871;PMS7003;30602;51.060;17.226;2024-02-15T13:22:23;13;10;7
44871;PMS7003;30602;51.060;17.226;2024-02-15T13:25:49;11;9;6
44871;PMS7003;30602;51.060;17.226;2024-02-15T13:29:16;11;9;6
44871;PMS7003;30602;51.060;17.226;2024-02-15T13:32:43;10;7;6
44871;PMS7003;30602;51.060;17.226;2024-02-15T13:36:06;14;12;7
44871;PMS7003;30602;51.060;17.226;2024-02-15T13:39:33;10;8;6
44871;PMS7003;30602;51.060;17.226;2024-02-15T13:43:01;12;11;7
44871;PMS7003;30602;51.060;17.226;2024-02-15T13:46:29;10;9;8
44871;PMS7003;30602;51.060;17.226;2024-02-15T13:49:57;10;8;7
44871;PMS7003;30602;51.060;17.226;2024-02-15T13:53:19;10;9;6
44871;PMS7003;30602;51.060;17.226;2024-02-15T13:56:43;11;9;7
44871;PMS7003;30602;51.060;17.226;2024-02-15T14:00:17;10;9;6
44871;PMS7003;30602;51.060;17.226;2024-02-15T14:03:51;9;9;8
44871;PMS7003;30602;51.060;17.226;2024-02-15T14:07:19;11;11;7
44871;PMS7003;30602;51.060;17.226;2024-02-15T14:10:44;8;8;5
44871;PMS7003;30602;51.060;17.226;2024-02-15T14:14:08;10;7;6
44871;PMS7003;30602;51.060;17.226;2024-02-15T14:17:31;10;8;6
44871;PMS7003;30602;51.060;17.226;2024-02-15T14:20:58;10;6;5
44871;PMS7003;30602;51.060;17.226;2024-02-15T14:24:37;9;6;5
44871;PMS7003;30602;51.060;17.226;2024-02-15T14:28:06;9;8;5
44871;PMS7003;30602;51.060;17.226;2024-02-15T14:31:32;7;7;5
44871;PMS7003;30602;51.060;17.226;2024-02-15T14:35:09;10;6;5
44871;PMS7003;30602;51.060;17.226;2024-02-15T14:38:39;10;9;7
44871;PMS7003;30602;51.060;17.226;2024-02-15T14:42:04;8;7;5
44871;PMS7003;30602;51.060;17.226;2024-02-15T14:45:29;6;6;5
44871;PMS7003;30602;51.060;17.226;2024-02-15T14:48:57;7;7;6
44871;PMS7003;30602;51.060;17.226;2024-02-15T14:52:20;7;5;5
44871;PMS7003;30602;51.060;17.226;2024-02-15T14:55:44;7;5;4
44871;PMS7003;30602;51.060;17.226;2024-02-15T14:59:14;6;5;5
44871;PMS7003;30602;51.060;17.226;2024-02-15T15:02:44;4;4;4
44871;PMS7003;30602;51.060;17.226;2024-02-15T15:06:44;7;5;4
44871;PMS7003;30602;51.060;17.226;2024-02-15T15:10:19;7;6;5
44871;PMS7003;30602;51.060;17.226;2024-02-15T15:13:54;7;6;5
44871;PMS7003;30602;51.060;17.226;2024-02-15T15:17:17;5;5;4
44871;PMS7003;30602;51.060;17.226;2024-02-15T15:20:46;7;6;6
44871;PMS7003;30602;51.060;17.226;2024-02-15T15:24:08;7;7;4
44871;PMS7003;30602;51.060;17.226;2024-02-15T15:27:33;8;7;5
44871;PMS7003;30602;51.060;17.226;2024-02-15T15:31:01;8;8;5
44871;PMS7003;30602;51.060;17.226;2024-02-15T15:34:33;10;9;5
44871;PMS7003;30602;51.060;17.226;2024-02-15T15:38:14;11;9;6
44871;PMS7003;30602;51.060;17.226;2024-02-15T15:41:36;10;8;5
44871;PMS7003;30602;51.060;17.226;2024-02-15T15:44:59;14;12;8
44871;PMS7003;30602;51.060;17.226;2024-02-15T15:48:26;9;9;8
44871;PMS7003;30602;51.060;17.226;2024-02-15T15:51:50;9;9;8
44871;PMS7003;30602;51.060;17.226;2024-02-15T15:55:18;12;12;8
44871;PMS7003;30602;51.060;17.226;2024-02-15T15:58:45;19;13;9
44871;PMS7003;30602;51.060;17.226;2024-02-15T16:02:08;12;10;6
44871;PMS7003;30602;51.060;17.226;2024-02-15T16:05:33;20;19;13
44871;PMS7003;30602;51.060;17.226;2024-02-15T16:08:55;19;18;14
44871;PMS7003;30602;51.060;17.226;2024-02-15T16:12:21;21;19;12
44871;PMS7003;30602;51.060;17.226;2024-02-15T16:15:51;17;16;13
44871;PMS7003;30602;51.060;17.226;2024-02-15T16:19:19;15;12;9
44871;PMS7003;30602;51.060;17.226;2024-02-15T16:22:40;17;15;10
44871;PMS7003;30602;51.060;17.226;2024-02-15T16:26:10;16;11;10
44871;PMS7003;30602;51.060;17.226;2024-02-15T16:29:34;10;10;7
44871;PMS7003;30602;51.060;17.226;2024-02-15T16:32:56;14;14;10
44871;PMS7003;30602;51.060;17.226;2024-02-15T16:36:22;12;11;9
44871;PMS7003;30602;51.060;17.226;2024-02-15T16:39:46;17;16;12
44871;PMS7003;30602;51.060;17.226;2024-02-15T16:43:07;18;16;12
44871;PMS7003;30602;51.060;17.226;2024-02-15T16:46:33;18;16;10
44871;PMS7003;30602;51.060;17.226;2024-02-15T16:50:11;19;18;13
44871;PMS7003;30602;51.060;17.226;2024-02-15T16:53:43;21;19;13
44871;PMS7003;30602;51.060;17.226;2024-02-15T16:57:05;23;18;12
44871;PMS7003;30602;51.060;17.226;2024-02-15T17:01:12;35;29;19
44871;PMS7003;30602;51.060;17.226;2024-02-15T17:04:43;28;22;16
44871;PMS7003;30602;51.060;17.226;2024-02-15T17:08:10;30;29;21
44871;PMS7003;30602;51.060;17.226;2024-02-15T17:11:38;32;30;21
44871;PMS7003;30602;51.060;17.226;2024-02-15T17:15:38;43;33;23
44871;PMS7003;30602;51.060;17.226;2024-02-15T17:19:33;41;36;25
44871;PMS7003;30602;51.060;17.226;2024-02-15T17:23:35;47;38;25
44871;PMS7003;30602;51.060;17.226;2024-02-15T17:27:01;46;39;25
44871;PMS7003;30602;51.060;17.226;2024-02-15T17:30:59;50;40;27
44871;PMS7003;30602;51.060;17.226;2024-02-15T17:34:36;40;35;20
44871;PMS7003;30602;51.060;17.226;2024-02-15T17:38:03;43;34;24
44871;PMS7003;30602;51.060;17.226;2024-02-15T17:42:04;41;32;21
44871;PMS7003;30602;51.060;17.226;2024-02-15T17:45:29;34;30;21
44871;PMS7003;30602;51.060;17.226;2024-02-15T17:48:59;36;33;24
44871;PMS7003;30602;51.060;17.226;2024-02-15T17:52:26;40;38;25
44871;PMS7003;30602;51.060;17.226;2024-02-15T17:55:48;41;33;24
44871;PMS7003;30602;51.060;17.226;2024-02-15T17:59:20;39;36;23
44871;PMS7003;30602;51.060;17.226;2024-02-15T18:02:51;40;34;24
44871;PMS7003;30602;51.060;17.226;2024-02-15T18:06:31;34;29;20
44871;PMS7003;30602;51.060;17.226;2024-02-15T18:09:58;40;37;25
44871;PMS7003;30602;51.060;17.226;2024-02-15T18:13:34;46;38;25
44871;PMS7003;30602;51.060;17.226;2024-02-15T18:17:37;52;41;26
44871;PMS7003;30602;51.060;17.226;2024-02-15T18:21:39;45;37;25
44871;PMS7003;30602;51.060;17.226;2024-02-15T18:25:09;48;39;26
44871;PMS7003;30602;51.060;17.226;2024-02-15T18:29:07;55;41;26
44871;PMS7003;30602;51.060;17.226;2024-02-15T18:32:42;46;40;25
44871;PMS7003;30602;51.060;17.226;2024-02-15T18:36:46;48;40;25
44871;PMS7003;30602;51.060;17.226;2024-02-15T18:40:48;48;40;26
44871;PMS7003;30602;51.060;17.226;2024-02-15T18:44:50;43;39;24
44871;PMS7003;30602;51.060;17.226;2024-02-15T18:48:31;44;37;23
44871;PMS7003;30602;51.060;17.226;2024-02-15T18:51:59;46;38;23
44871;PMS7003;30602;51.060;17.226;2024-02-15T18:55:57;45;38;25
44871;PMS7003;30602;51.060;17.226;2024-02-15T18:59:28;45;37;24
44871;PMS7003;30602;51.060;17.226;2024-02-15T19:03:28;53;38;25
44871;PMS7003;30602;51.060;17.226;2024-02-15T19:06:56;34;30;19
44871;PMS7003;30602;51.060;17.226;2024-02-15T19:10:51;43;35;26
44871;PMS7003;30602;51.060;17.226;2024-02-15T19:14:23;43;37;24
44871;PMS7003;30602;51.060;17.226;2024-02-15T19:17:44;32;28;22
44871;PMS7003;30602;51.060;17.226;2024-02-15T19:21:12;39;35;22
44871;PMS7003;30602;51.060;17.226;2024-02-15T19:24:40;29;25;20
44871;PMS7003;30602;51.060;17.226;2024-02-15T19:27:58;33;27;18
44871;PMS7003;30602;51.060;17.226;2024-02-15T19:31:31;29;28;19
44871;PMS7003;30602;51.060;17.226;2024-02-15T19:34:54;29;24;17
44871;PMS7003;30602;51.060;17.226;2024-02-15T19:38:24;36;31;20
44871;PMS7003;30602;51.060;17.226;2024-02-15T19:41:51;32;28;19
44871;PMS7003;30602;51.060;17.226;2024-02-15T19:45:18;36;31;20
44871;PMS7003;30602;51.060;17.226;2024-02-15T19:48:48;39;33;21
44871;PMS7003;30602;51.060;17.226;2024-02-15T19:52:16;33;31;20
44871;PMS7003;30602;51.060;17.226;2024-02-15T19:56:21;40;34;21
44871;PMS7003;30602;51.060;17.226;2024-02-15T20:00:30;36;32;21
44871;PMS7003;30602;51.060;17.226;2024-02-15T20:03:56;41;35;22
44871;PMS7003;30602;51.060;17.226;2024-02-15T20:07:23;45;39;25
44871;PMS7003;30602;51.060;17.226;2024-02-15T20:10:50;39;35;23
44871;PMS7003;30602;51.060;17.226;2024-02-15T20:14:56;44;37;25
44871;PMS7003;30602;51.060;17.226;2024-02-15T20:18:56;40;32;21
44871;PMS7003;30602;51.060;17.226;2024-02-15T20:22:25;46;39;23
44871;PMS7003;30602;51.060;17.226;2024-02-15T20:25:57;48;42;26
44871;PMS7003;30602;51.060;17.226;2024-02-15T20:29:29;52;40;25
44871;PMS7003;30602;51.060;17.226;2024-02-15T20:33:41;51;42;26
44871;PMS7003;30602;51.060;17.226;2024-02-15T20:37:36;39;34;22
44871;PMS7003;30602;51.060;17.226;2024-02-15T20:41:03;35;31;21
44871;PMS7003;30602;51.060;17.226;2024-02-15T20:44:31;29;26;19
44871;PMS7003;30602;51.060;17.226;2024-02-15T20:48:36;36;32;22
44871;PMS7003;30602;51.060;17.226;2024-02-15T20:52:03;41;37;23
44871;PMS7003;30602;51.060;17.226;2024-02-15T20:55:27;33;30;19
44871;PMS7003;30602;51.060;17.226;2024-02-15T20:59:05;42;36;21
44871;PMS7003;30602;51.060;17.226;2024-02-15T21:03:02;34;30;21
44871;PMS7003;30602;51.060;17.226;2024-02-15T21:06:39;33;28;18
44871;PMS7003;30602;51.060;17.226;2024-02-15T21:10:06;25;24;17
44871;PMS7003;30602;51.060;17.226;2024-02-15T21:14:09;32;27;18
44871;PMS7003;30602;51.060;17.226;2024-02-15T21:18:46;31;27;20
44871;PMS7003;30602;51.060;17.226;2024-02-15T21:22:21;33;31;20
44871;PMS7003;30602;51.060;17.226;2024-02-15T21:25:48;35;30;22
44871;PMS7003;30602;51.060;17.226;2024-02-15T21:29:20;33;29;19
44871;PMS7003;30602;51.060;17.226;2024-02-15T21:33:31;34;30;19
44871;PMS7003;30602;51.060;17.226;2024-02-15T21:37:07;31;27;18
44871;PMS7003;30602;51.060;17.226;2024-02-15T21:40:49;33;30;19
44871;PMS7003;30602;51.060;17.226;2024-02-15T21:44:57;39;30;21
44871;PMS7003;30602;51.060;17.226;2024-02-15T21:48:35;38;33;21
44871;PMS7003;30602;51.060;17.226;2024-02-15T21:52:06;25;24;17
44871;PMS7003;30602;51.060;17.226;2024-02-15T21:55:48;26;22;16
44871;PMS7003;30602;51.060;17.226;2024-02-15T21:59:23;22;21;15
44871;PMS7003;30602;51.060;17.226;2024-02-15T22:15:49;32;26;16
44871;PMS7003;30602;51.060;17.226;2024-02-15T22:19:15;27;24;16
44871;PMS7003;30602;51.060;17.226;2024-02-15T22:22:41;25;23;17
44871;PMS7003;30602;51.060;17.226;2024-02-15T22:26:16;35;29;19
44871;PMS7003;30602;51.060;17.226;2024-02-15T22:30:19;31;25;16
44871;PMS7003;30602;51.060;17.226;2024-02-15T22:33:44;23;21;14
44871;PMS7003;30602;51.060;17.226;2024-02-15T22:37:07;24;22;16
44871;PMS7003;30602;51.060;17.226;2024-02-15T22:40:35;26;25;18
44871;PMS7003;30602;51.060;17.226;2024-02-15T22:43:58;34;30;21
44871;PMS7003;30602;51.060;17.226;2024-02-15T22:47:22;29;25;17
44871;PMS7003;30602;51.060;17.226;2024-02-15T22:51:25;31;29;18
44871;PMS7003;30602;51.060;17.226;2024-02-15T22:55:00;34;30;18
44871;PMS7003;30602;51.060;17.226;2024-02-15T22:58:26;33;32;19